createdAt,value
2023-02-02T00:00:07.562Z,996.57
2023-02-02T00:01:07.551Z,996.49
2023-02-02T00:02:08.512Z,996.50
2023-02-02T00:03:07.620Z,996.54
2023-02-02T00:04:07.517Z,996.60
2023-02-02T00:05:07.503Z,996.49
2023-02-02T00:06:07.506Z,996.54
2023-02-02T00:07:07.517Z,996.42
2023-02-02T00:08:07.480Z,996.42
2023-02-02T00:09:07.463Z,996.41
2023-02-02T00:10:07.460Z,996.32
2023-02-02T00:11:07.488Z,996.24
2023-02-02T00:12:07.445Z,996.35
2023-02-02T00:13:07.445Z,996.48
2023-02-02T00:14:07.438Z,996.43
2023-02-02T00:15:07.423Z,996.48
2023-02-02T00:16:07.478Z,996.43
2023-02-02T00:17:07.400Z,996.46
2023-02-02T00:18:07.393Z,996.47
2023-02-02T00:19:07.397Z,996.44
2023-02-02T00:20:07.373Z,996.39
2023-02-02T00:21:07.409Z,996.42
2023-02-02T00:22:07.407Z,996.47
2023-02-02T00:23:07.353Z,996.42
2023-02-02T00:24:07.358Z,996.40
2023-02-02T00:25:07.345Z,996.47
2023-02-02T00:26:07.357Z,996.46
2023-02-02T00:27:07.344Z,996.48
2023-02-02T00:28:07.317Z,996.53
2023-02-02T00:29:08.325Z,996.52
2023-02-02T00:30:07.331Z,996.39
2023-02-02T00:31:07.387Z,996.43
2023-02-02T00:32:07.287Z,996.46
2023-02-02T00:33:07.296Z,996.43
2023-02-02T00:34:07.270Z,996.34
2023-02-02T00:35:07.273Z,996.34
2023-02-02T00:36:07.304Z,996.20
2023-02-02T00:37:07.259Z,996.12
2023-02-02T00:38:07.259Z,996.26
2023-02-02T00:39:07.249Z,996.24
2023-02-02T00:40:07.250Z,996.36
2023-02-02T00:41:07.273Z,996.40
2023-02-02T00:42:07.216Z,996.46
2023-02-02T00:43:07.208Z,996.38
2023-02-02T00:44:07.205Z,996.29
2023-02-02T00:45:07.205Z,996.28
2023-02-02T00:46:07.255Z,996.33
2023-02-02T00:47:07.188Z,996.25
2023-02-02T00:48:07.177Z,996.26
2023-02-02T00:49:07.171Z,996.32
2023-02-02T00:50:07.171Z,996.26
2023-02-02T00:51:07.190Z,996.27
2023-02-02T00:52:07.157Z,996.33
2023-02-02T00:53:07.140Z,996.41
2023-02-02T00:54:07.134Z,996.35
2023-02-02T00:55:07.124Z,996.44
2023-02-02T00:56:07.151Z,996.36
2023-02-02T00:57:07.125Z,996.44
2023-02-02T00:58:07.118Z,996.43
2023-02-02T00:59:07.117Z,996.39
2023-02-02T01:00:07.100Z,996.50
2023-02-02T01:01:07.110Z,996.50
2023-02-02T01:02:07.137Z,996.53
2023-02-02T01:03:07.104Z,996.56
2023-02-02T01:04:07.069Z,996.60
2023-02-02T01:05:07.062Z,996.52
2023-02-02T01:06:07.075Z,996.53
2023-02-02T01:07:07.030Z,996.60
2023-02-02T01:08:07.032Z,996.63
2023-02-02T01:09:07.019Z,996.68
2023-02-02T01:10:07.132Z,996.66
2023-02-02T01:11:07.034Z,996.55
2023-02-02T01:12:06.996Z,996.65
2023-02-02T01:13:06.990Z,996.75
2023-02-02T01:14:06.987Z,996.73
2023-02-02T01:15:06.987Z,996.66
2023-02-02T01:16:07.036Z,996.69
2023-02-02T01:17:06.948Z,996.67
2023-02-02T01:18:06.958Z,996.68
2023-02-02T01:19:06.962Z,996.67
2023-02-02T01:20:06.926Z,996.63
2023-02-02T01:21:06.959Z,996.63
2023-02-02T01:22:06.911Z,996.75
2023-02-02T01:23:06.909Z,996.72
2023-02-02T01:24:06.914Z,996.75
2023-02-02T01:25:06.902Z,996.63
2023-02-02T01:26:06.970Z,996.68
2023-02-02T01:27:06.884Z,996.68
2023-02-02T01:28:06.896Z,996.66
2023-02-02T01:29:06.898Z,996.65
2023-02-02T01:30:06.855Z,996.65
2023-02-02T01:31:06.925Z,996.71
2023-02-02T01:32:06.859Z,996.69
2023-02-02T01:33:06.827Z,996.85
2023-02-02T01:34:06.835Z,996.88
2023-02-02T01:35:06.886Z,996.73
2023-02-02T01:36:06.801Z,996.77
2023-02-02T01:37:06.821Z,996.85
2023-02-02T01:38:06.800Z,996.75
2023-02-02T01:39:06.790Z,996.77
2023-02-02T01:40:06.775Z,996.76
2023-02-02T01:41:06.790Z,996.76
2023-02-02T01:42:06.798Z,996.82
2023-02-02T01:43:06.745Z,996.72
2023-02-02T01:44:06.746Z,996.77
2023-02-02T01:45:06.747Z,996.82
2023-02-02T01:46:06.769Z,996.89
2023-02-02T01:47:06.776Z,996.81
2023-02-02T01:48:06.700Z,996.85
2023-02-02T01:49:07.713Z,996.84
2023-02-02T01:50:06.698Z,996.85
2023-02-02T01:51:06.689Z,996.80
2023-02-02T01:52:06.717Z,996.81
2023-02-02T01:53:06.690Z,996.78
2023-02-02T01:54:06.683Z,996.70
2023-02-02T01:55:06.655Z,996.79
2023-02-02T01:56:06.657Z,996.74
2023-02-02T01:57:06.678Z,996.80
2023-02-02T01:58:06.653Z,996.83
2023-02-02T01:59:06.649Z,996.87
2023-02-02T02:00:06.615Z,996.89
2023-02-02T02:01:06.646Z,996.90
2023-02-02T02:02:06.721Z,996.89
2023-02-02T02:03:06.589Z,996.89
2023-02-02T02:04:06.599Z,996.88
2023-02-02T02:05:06.592Z,996.93
2023-02-02T02:06:06.649Z,996.83
2023-02-02T02:07:06.597Z,996.82
2023-02-02T02:08:06.707Z,996.87
2023-02-02T02:09:06.559Z,996.88
2023-02-02T02:10:06.573Z,996.87
2023-02-02T02:11:06.544Z,996.98
2023-02-02T02:12:06.570Z,996.88
2023-02-02T02:13:06.539Z,996.81
2023-02-02T02:14:06.527Z,996.88
2023-02-02T02:15:06.532Z,996.93
2023-02-02T02:16:06.546Z,996.95
2023-02-02T02:17:06.535Z,996.93
2023-02-02T02:18:06.492Z,996.84
2023-02-02T02:19:06.493Z,996.90
2023-02-02T02:20:06.511Z,996.95
2023-02-02T02:21:06.487Z,996.93
2023-02-02T02:22:06.512Z,996.86
2023-02-02T02:23:06.458Z,996.93
2023-02-02T02:24:06.455Z,996.88
2023-02-02T02:25:06.444Z,996.96
2023-02-02T02:26:06.436Z,996.89
2023-02-02T02:27:06.473Z,996.97
2023-02-02T02:28:06.420Z,996.96
2023-02-02T02:29:06.434Z,996.90
2023-02-02T02:30:06.441Z,996.93
2023-02-02T02:31:06.517Z,996.95
2023-02-02T02:32:06.401Z,996.94
2023-02-02T02:33:06.436Z,996.88
2023-02-02T02:34:06.373Z,996.98
2023-02-02T02:35:06.399Z,996.95
2023-02-02T02:36:06.391Z,996.98
2023-02-02T02:37:06.354Z,997.00
2023-02-02T02:38:06.363Z,997.03
2023-02-02T02:39:06.356Z,997.02
2023-02-02T02:40:06.338Z,997.02
2023-02-02T02:41:06.341Z,996.97
2023-02-02T02:42:06.342Z,996.93
2023-02-02T02:43:06.335Z,997.00
2023-02-02T02:44:06.329Z,996.98
2023-02-02T02:45:06.292Z,997.03
2023-02-02T02:46:06.344Z,997.02
2023-02-02T02:47:06.281Z,997.07
2023-02-02T02:48:06.299Z,997.06
2023-02-02T02:49:06.274Z,997.07
2023-02-02T02:50:06.270Z,997.09
2023-02-02T02:51:06.268Z,997.09
2023-02-02T02:52:06.235Z,997.07
2023-02-02T02:53:06.275Z,997.06
2023-02-02T02:54:06.244Z,997.11
2023-02-02T02:55:06.219Z,997.07
2023-02-02T02:56:06.214Z,997.12
2023-02-02T02:57:06.200Z,997.11
2023-02-02T02:58:06.224Z,997.04
2023-02-02T02:59:06.177Z,997.04
2023-02-02T03:00:06.181Z,997.11
2023-02-02T03:01:06.169Z,997.12
2023-02-02T03:02:06.141Z,997.13
2023-02-02T03:03:07.213Z,997.10
2023-02-02T03:04:06.138Z,997.09
2023-02-02T03:05:06.129Z,997.08
2023-02-02T03:06:06.123Z,997.08
2023-02-02T03:07:06.116Z,997.09
2023-02-02T03:08:06.130Z,997.14
2023-02-02T03:09:06.106Z,997.14
2023-02-02T03:10:06.100Z,997.17
2023-02-02T03:11:06.099Z,997.11
2023-02-02T03:12:06.090Z,997.20
2023-02-02T03:13:06.118Z,997.14
2023-02-02T03:14:06.087Z,997.12
2023-02-02T03:15:06.095Z,997.13
2023-02-02T03:16:06.106Z,997.14
2023-02-02T03:17:06.054Z,997.18
2023-02-02T03:18:06.072Z,997.13
2023-02-02T03:19:06.064Z,997.12
2023-02-02T03:20:06.023Z,997.18
2023-02-02T03:21:06.053Z,997.16
2023-02-02T03:22:06.013Z,997.07
2023-02-02T03:23:06.030Z,997.16
2023-02-02T03:24:06.016Z,997.20
2023-02-02T03:25:05.987Z,997.17
2023-02-02T03:26:06.041Z,997.23
2023-02-02T03:27:05.975Z,997.23
2023-02-02T03:28:06.042Z,997.28
2023-02-02T03:29:05.980Z,997.27
2023-02-02T03:30:05.954Z,997.26
2023-02-02T03:31:06.006Z,997.31
2023-02-02T03:32:05.921Z,997.24
2023-02-02T03:33:05.943Z,997.26
2023-02-02T03:34:05.914Z,997.24
2023-02-02T03:35:05.907Z,997.28
2023-02-02T03:36:05.895Z,997.28
2023-02-02T03:37:05.894Z,997.36
2023-02-02T03:38:05.913Z,997.41
2023-02-02T03:39:05.891Z,997.34
2023-02-02T03:40:05.894Z,997.40
2023-02-02T03:41:05.854Z,997.39
2023-02-02T03:42:05.873Z,997.38
2023-02-02T03:43:05.867Z,997.34
2023-02-02T03:44:05.844Z,997.38
2023-02-02T03:45:05.828Z,997.36
2023-02-02T03:46:05.861Z,997.47
2023-02-02T03:47:05.813Z,997.41
2023-02-02T03:48:05.933Z,997.42
2023-02-02T03:49:05.804Z,997.42
2023-02-02T03:50:05.793Z,997.33
2023-02-02T03:51:05.787Z,997.37
2023-02-02T03:52:05.784Z,997.34
2023-02-02T03:53:05.803Z,997.41
2023-02-02T03:54:05.843Z,997.38
2023-02-02T03:55:05.754Z,997.39
2023-02-02T03:56:05.745Z,997.40
2023-02-02T03:57:05.769Z,997.47
2023-02-02T03:58:05.764Z,997.46
2023-02-02T03:59:05.730Z,997.45
2023-02-02T04:00:05.718Z,997.46
2023-02-02T04:01:05.730Z,997.49
2023-02-02T04:02:05.731Z,997.48
2023-02-02T04:03:05.794Z,997.51
2023-02-02T04:04:05.690Z,997.47
2023-02-02T04:05:05.707Z,997.52
2023-02-02T04:06:05.684Z,997.47
2023-02-02T04:07:05.675Z,997.50
2023-02-02T04:08:05.715Z,997.47
2023-02-02T04:09:05.666Z,997.42
2023-02-02T04:10:05.647Z,997.48
2023-02-02T04:11:05.660Z,997.52
2023-02-02T04:12:05.631Z,997.43
2023-02-02T04:13:05.697Z,997.47
2023-02-02T04:14:05.629Z,997.51
2023-02-02T04:15:05.621Z,997.56
2023-02-02T04:16:05.651Z,997.48
2023-02-02T04:17:05.593Z,997.56
2023-02-02T04:18:05.597Z,997.47
2023-02-02T04:19:05.650Z,997.47
2023-02-02T04:20:05.576Z,997.50
2023-02-02T04:21:05.575Z,997.49
2023-02-02T04:22:05.564Z,997.39
2023-02-02T04:23:05.575Z,997.43
2023-02-02T04:24:05.573Z,997.51
2023-02-02T04:25:05.617Z,997.49
2023-02-02T04:26:05.566Z,997.54
2023-02-02T04:27:05.529Z,997.44
2023-02-02T04:28:05.520Z,997.50
2023-02-02T04:29:05.546Z,997.53
2023-02-02T04:30:05.523Z,997.45
2023-02-02T04:31:05.623Z,997.51
2023-02-02T04:32:05.493Z,997.64
2023-02-02T04:33:05.494Z,997.63
2023-02-02T04:34:05.517Z,997.63
2023-02-02T04:35:05.470Z,997.58
2023-02-02T04:36:05.491Z,997.59
2023-02-02T04:37:05.470Z,997.58
2023-02-02T04:38:05.434Z,997.62
2023-02-02T04:39:05.461Z,997.63
2023-02-02T04:40:05.447Z,997.67
2023-02-02T04:41:05.467Z,997.63
2023-02-02T04:42:05.424Z,997.61
2023-02-02T04:43:05.426Z,997.67
2023-02-02T04:44:05.459Z,997.58
2023-02-02T04:45:05.425Z,997.63
2023-02-02T04:46:05.432Z,997.63
2023-02-02T04:47:05.388Z,997.71
2023-02-02T04:48:05.382Z,997.70
2023-02-02T04:49:05.382Z,997.71
2023-02-02T04:50:05.360Z,997.68
2023-02-02T04:51:05.355Z,997.67
2023-02-02T04:52:05.331Z,997.72
2023-02-02T04:53:05.347Z,997.71
2023-02-02T04:54:05.352Z,997.75
2023-02-02T04:55:05.313Z,997.69
2023-02-02T04:56:05.313Z,997.79
2023-02-02T04:57:05.296Z,997.75
2023-02-02T04:59:24.387Z,997.77
2023-02-02T05:00:24.384Z,997.85
2023-02-02T05:01:24.404Z,997.81
2023-02-02T05:02:24.338Z,997.82
2023-02-02T05:03:24.328Z,997.79
2023-02-02T05:04:24.373Z,997.85
2023-02-02T05:05:24.676Z,997.75
2023-02-02T05:06:24.328Z,997.83
2023-02-02T05:07:24.301Z,997.87
2023-02-02T05:08:24.356Z,997.82
2023-02-02T05:09:24.328Z,997.92
2023-02-02T05:10:24.284Z,997.89
2023-02-02T05:11:25.422Z,997.91
2023-02-02T05:12:25.567Z,997.96
2023-02-02T05:13:25.397Z,997.96
2023-02-02T05:14:25.418Z,997.92
2023-02-02T05:15:25.830Z,997.88
2023-02-02T05:16:28.517Z,997.91
2023-02-02T05:17:25.370Z,998.01
2023-02-02T05:18:25.361Z,998.01
2023-02-02T05:19:25.378Z,998.11
2023-02-02T05:20:25.348Z,998.06
2023-02-02T05:21:25.330Z,998.05
2023-02-02T05:22:25.329Z,998.07
2023-02-02T05:23:25.316Z,998.01
2023-02-02T05:24:25.337Z,998.08
2023-02-02T05:25:25.670Z,998.08
2023-02-02T05:26:25.390Z,998.04
2023-02-02T05:27:25.303Z,998.06
2023-02-02T05:28:25.383Z,998.03
2023-02-02T05:29:25.319Z,998.03
2023-02-02T05:30:25.256Z,998.07
2023-02-02T05:31:25.341Z,998.09
2023-02-02T05:32:25.244Z,998.10
2023-02-02T05:33:25.248Z,998.13
2023-02-02T05:34:25.275Z,998.06
2023-02-02T05:35:25.574Z,998.10
2023-02-02T05:36:25.219Z,998.09
2023-02-02T05:37:25.214Z,998.15
2023-02-02T05:38:25.207Z,998.12
2023-02-02T05:39:25.231Z,998.21
2023-02-02T05:40:25.197Z,998.24
2023-02-02T05:41:25.180Z,998.14
2023-02-02T05:42:25.313Z,998.15
2023-02-02T05:43:25.169Z,998.21
2023-02-02T05:44:25.191Z,998.20
2023-02-02T05:45:25.520Z,998.19
2023-02-02T05:46:25.143Z,998.22
2023-02-02T05:47:25.135Z,998.24
2023-02-02T05:48:25.131Z,998.23
2023-02-02T05:49:25.151Z,998.14
2023-02-02T05:50:25.116Z,998.18
2023-02-02T05:51:25.111Z,998.16
2023-02-02T05:52:25.100Z,998.11
2023-02-02T05:53:25.089Z,998.17
2023-02-02T05:54:25.220Z,998.21
2023-02-02T05:55:25.415Z,998.24
2023-02-02T05:56:25.075Z,998.31
2023-02-02T05:57:25.070Z,998.24
2023-02-02T05:58:25.145Z,998.28
2023-02-02T05:59:25.074Z,998.30
2023-02-02T06:00:25.080Z,998.29
2023-02-02T06:01:25.034Z,998.34
2023-02-02T06:02:25.036Z,998.29
2023-02-02T06:03:25.128Z,998.35
2023-02-02T06:04:25.038Z,998.35
2023-02-02T06:05:25.401Z,998.28
2023-02-02T06:06:24.992Z,998.30
2023-02-02T06:07:24.987Z,998.33
2023-02-02T06:08:24.982Z,998.35
2023-02-02T06:09:24.996Z,998.40
2023-02-02T06:10:24.964Z,998.36
2023-02-02T06:11:24.973Z,998.34
2023-02-02T06:12:24.960Z,998.43
2023-02-02T06:13:24.941Z,998.45
2023-02-02T06:14:24.966Z,998.38
2023-02-02T06:15:25.525Z,998.39
2023-02-02T06:16:24.924Z,998.39
2023-02-02T06:17:24.944Z,998.34
2023-02-02T06:18:24.898Z,998.29
2023-02-02T06:19:24.956Z,998.40
2023-02-02T06:20:24.893Z,998.36
2023-02-02T06:21:24.888Z,998.34
2023-02-02T06:22:24.877Z,998.38
2023-02-02T06:23:24.925Z,998.35
2023-02-02T06:24:24.899Z,998.37
2023-02-02T06:25:25.214Z,998.35
2023-02-02T06:26:24.939Z,998.39
2023-02-02T06:27:24.843Z,998.35
2023-02-02T06:28:24.835Z,998.32
2023-02-02T06:29:24.870Z,998.33
2023-02-02T06:30:24.896Z,998.36
2023-02-02T06:31:25.152Z,998.37
2023-02-02T06:32:24.809Z,998.37
2023-02-02T06:33:24.803Z,998.47
2023-02-02T06:34:24.857Z,998.39
2023-02-02T06:35:25.252Z,998.44
2023-02-02T06:36:24.838Z,998.33
2023-02-02T06:37:24.771Z,998.42
2023-02-02T06:38:24.768Z,998.41
2023-02-02T06:39:24.773Z,998.37
2023-02-02T06:40:24.746Z,998.39
2023-02-02T06:41:24.736Z,998.32
2023-02-02T06:42:24.733Z,998.38
2023-02-02T06:43:24.725Z,998.31
2023-02-02T06:44:24.753Z,998.34
2023-02-02T06:45:25.012Z,998.36
2023-02-02T06:46:24.733Z,998.37
2023-02-02T06:47:26.827Z,998.33
2023-02-02T06:48:25.729Z,998.38
2023-02-02T06:49:24.776Z,998.31
2023-02-02T06:50:24.671Z,998.36
2023-02-02T06:51:24.673Z,998.36
2023-02-02T06:52:24.659Z,998.37
2023-02-02T06:53:24.660Z,998.34
2023-02-02T06:54:24.712Z,998.32
2023-02-02T06:55:25.004Z,998.33
2023-02-02T06:56:24.615Z,998.36
2023-02-02T06:57:24.639Z,998.35
2023-02-02T06:58:24.614Z,998.34
2023-02-02T06:59:24.792Z,998.32
2023-02-02T07:00:24.634Z,998.35
2023-02-02T07:01:24.664Z,998.28
2023-02-02T07:02:24.620Z,998.28
2023-02-02T07:03:24.563Z,998.23
2023-02-02T07:04:24.574Z,998.24
2023-02-02T07:05:25.121Z,998.30
2023-02-02T07:06:24.555Z,998.35
2023-02-02T07:07:24.553Z,998.31
2023-02-02T07:08:24.552Z,998.34
2023-02-02T07:09:24.640Z,998.34
2023-02-02T07:11:12.672Z,998.33
2023-02-02T07:11:25.539Z,998.23
2023-02-02T07:12:24.505Z,998.24
2023-02-02T07:13:24.505Z,998.27
2023-02-02T07:14:24.499Z,998.23
2023-02-02T07:15:24.876Z,998.37
2023-02-02T07:16:24.527Z,998.32
2023-02-02T07:17:24.491Z,998.37
2023-02-02T07:18:24.478Z,998.36
2023-02-02T07:19:24.477Z,998.36
2023-02-02T07:20:24.485Z,998.40
2023-02-02T07:21:24.442Z,998.33
2023-02-02T07:22:24.432Z,998.40
2023-02-02T07:23:24.429Z,998.36
2023-02-02T07:24:24.437Z,998.40
2023-02-02T07:25:24.775Z,998.43
2023-02-02T07:26:24.478Z,998.40
2023-02-02T07:27:24.395Z,998.42
2023-02-02T07:28:24.392Z,998.52
2023-02-02T07:29:24.491Z,998.52
2023-02-02T07:30:24.422Z,998.52
2023-02-02T07:31:24.380Z,998.54
2023-02-02T07:32:24.366Z,998.52
2023-02-02T07:33:24.350Z,998.66
2023-02-02T07:34:24.342Z,998.61
2023-02-02T07:35:24.654Z,998.63
2023-02-02T07:36:24.350Z,998.61
2023-02-02T07:37:24.314Z,998.60
2023-02-02T07:38:24.311Z,998.60
2023-02-02T07:39:24.303Z,998.62
2023-02-02T07:40:24.320Z,998.61
2023-02-02T07:41:24.289Z,998.64
2023-02-02T07:42:24.285Z,998.67
2023-02-02T07:43:24.271Z,998.73
2023-02-02T07:44:24.264Z,998.81
2023-02-02T07:45:24.607Z,998.78
2023-02-02T07:46:24.325Z,998.77
2023-02-02T07:47:24.239Z,998.79
2023-02-02T07:48:24.229Z,998.78
2023-02-02T07:49:24.222Z,998.80
2023-02-02T07:50:24.240Z,998.86
2023-02-02T07:51:24.212Z,998.91
2023-02-02T07:52:24.207Z,998.89
2023-02-02T07:53:24.211Z,998.90
2023-02-02T07:54:24.194Z,998.90
2023-02-02T07:55:24.210Z,998.91
2023-02-02T07:56:24.181Z,998.90
2023-02-02T07:57:24.165Z,998.90
2023-02-02T07:58:24.155Z,998.86
2023-02-02T07:59:24.160Z,998.88
2023-02-02T08:00:24.215Z,998.90
2023-02-02T08:01:24.185Z,998.91
2023-02-02T08:02:24.125Z,998.96
2023-02-02T08:03:24.119Z,999.01
2023-02-02T08:04:24.110Z,998.96
2023-02-02T08:05:24.527Z,998.99
2023-02-02T08:06:24.091Z,999.01
2023-02-02T08:07:24.131Z,999.04
2023-02-02T08:08:24.087Z,999.04
2023-02-02T08:09:24.170Z,999.08
2023-02-02T08:10:24.231Z,999.00
2023-02-02T08:11:24.080Z,998.95
2023-02-02T08:12:24.885Z,999.12
2023-02-02T08:13:25.042Z,999.03
2023-02-02T08:14:24.031Z,999.06
2023-02-02T08:15:24.300Z,999.10
2023-02-02T08:16:24.067Z,999.04
2023-02-02T08:17:24.015Z,999.07
2023-02-02T08:18:24.010Z,999.08
2023-02-02T08:19:23.998Z,999.08
2023-02-02T08:20:24.017Z,999.10
2023-02-02T08:21:23.990Z,999.05
2023-02-02T08:22:24.027Z,999.03
2023-02-02T08:23:24.013Z,999.09
2023-02-02T08:24:23.969Z,999.11
2023-02-02T08:25:24.437Z,999.16
2023-02-02T08:26:23.983Z,999.17
2023-02-02T08:27:23.936Z,999.19
2023-02-02T08:28:23.940Z,999.09
2023-02-02T08:29:23.926Z,999.10
2023-02-02T08:30:23.977Z,999.12
2023-02-02T08:31:23.935Z,999.12
2023-02-02T08:32:23.909Z,999.18
2023-02-02T08:33:23.913Z,999.18
2023-02-02T08:34:23.895Z,999.15
2023-02-02T08:35:24.194Z,999.15
2023-02-02T08:36:24.883Z,999.16
2023-02-02T08:37:23.872Z,999.22
2023-02-02T08:38:23.881Z,999.22
2023-02-02T08:39:23.854Z,999.25
2023-02-02T08:40:24.006Z,999.19
2023-02-02T08:41:23.856Z,999.26
2023-02-02T08:42:23.824Z,999.20
2023-02-02T08:43:23.815Z,999.21
2023-02-02T08:44:23.811Z,999.21
2023-02-02T08:46:07.745Z,999.29
2023-02-02T08:46:24.819Z,999.16
2023-02-02T08:47:23.799Z,999.31
2023-02-02T08:48:23.784Z,999.25
2023-02-02T08:49:23.773Z,999.27
2023-02-02T08:50:23.784Z,999.29
2023-02-02T08:51:24.766Z,999.33
2023-02-02T08:52:25.689Z,999.29
2023-02-02T08:53:24.730Z,999.34
2023-02-02T08:54:24.741Z,999.37
2023-02-02T08:55:24.153Z,999.35
2023-02-02T08:56:23.727Z,999.28
2023-02-02T08:57:23.706Z,999.34
2023-02-02T08:58:23.709Z,999.36
2023-02-02T08:59:23.706Z,999.39
2023-02-02T09:00:23.687Z,999.36
2023-02-02T09:01:23.799Z,999.45
2023-02-02T09:02:23.724Z,999.42
2023-02-02T09:03:23.666Z,999.47
2023-02-02T09:04:23.684Z,999.37
2023-02-02T09:05:24.187Z,999.40
2023-02-02T09:06:23.668Z,999.45
2023-02-02T09:07:23.640Z,999.40
2023-02-02T09:08:23.655Z,999.40
2023-02-02T09:09:23.645Z,999.45
2023-02-02T09:10:23.641Z,999.47
2023-02-02T09:11:23.633Z,999.48
2023-02-02T09:12:23.603Z,999.49
2023-02-02T09:13:23.591Z,999.52
2023-02-02T09:14:23.591Z,999.48
2023-02-02T09:15:23.906Z,999.48
2023-02-02T09:16:23.633Z,999.52
2023-02-02T09:17:23.556Z,999.49
2023-02-02T09:18:24.674Z,999.48
2023-02-02T09:19:23.555Z,999.52
2023-02-02T09:20:23.544Z,999.53
2023-02-02T09:21:23.561Z,999.54
2023-02-02T09:22:23.527Z,999.52
2023-02-02T09:23:23.521Z,999.52
2023-02-02T09:24:23.522Z,999.54
2023-02-02T09:25:23.865Z,999.58
2023-02-02T09:26:23.581Z,999.50
2023-02-02T09:27:23.493Z,999.54
2023-02-02T09:28:23.490Z,999.65
2023-02-02T09:29:23.485Z,999.54
2023-02-02T09:30:23.485Z,999.59
2023-02-02T09:31:23.553Z,999.58
2023-02-02T09:32:23.449Z,999.69
2023-02-02T09:33:23.442Z,999.70
2023-02-02T09:34:23.452Z,999.71
2023-02-02T09:35:23.824Z,999.74
2023-02-02T09:36:23.452Z,999.79
2023-02-02T09:37:23.414Z,999.72
2023-02-02T09:38:23.406Z,999.74
2023-02-02T09:39:23.400Z,999.73
2023-02-02T09:40:23.429Z,999.75
2023-02-02T09:41:23.409Z,999.81
2023-02-02T09:42:23.390Z,999.82
2023-02-02T09:43:23.379Z,999.84
2023-02-02T09:44:23.359Z,999.79
2023-02-02T09:45:23.879Z,999.85
2023-02-02T09:46:25.780Z,999.81
2023-02-02T09:47:23.346Z,999.86
2023-02-02T09:48:23.330Z,999.93
2023-02-02T09:49:23.331Z,999.92
2023-02-02T09:50:23.318Z,999.92
2023-02-02T09:51:23.494Z,999.92
2023-02-02T09:52:23.304Z,999.95
2023-02-02T09:53:23.296Z,999.98
2023-02-02T09:54:23.288Z,999.94
2023-02-02T09:55:23.666Z,1000.01
2023-02-02T09:56:23.303Z,999.99
2023-02-02T09:57:23.315Z,1000.00
2023-02-02T09:58:23.254Z,1000.10
2023-02-02T09:59:24.581Z,1000.02
2023-02-02T10:00:24.238Z,1000.11
2023-02-02T10:01:23.313Z,1000.01
2023-02-02T10:02:23.238Z,1000.11
2023-02-02T10:03:23.218Z,1000.08
2023-02-02T10:04:23.218Z,1000.03
2023-02-02T10:05:23.622Z,1000.14
2023-02-02T10:06:23.224Z,1000.13
2023-02-02T10:07:23.216Z,1000.09
2023-02-02T10:08:34.428Z,1000.13
2023-02-02T10:09:25.220Z,1000.15
2023-02-02T10:10:23.197Z,1000.09
2023-02-02T10:11:23.169Z,1000.10
2023-02-02T10:12:23.183Z,1000.13
2023-02-02T10:13:23.141Z,1000.11
2023-02-02T10:14:23.187Z,1000.14
2023-02-02T10:15:23.590Z,1000.12
2023-02-02T10:16:23.145Z,1000.11
2023-02-02T10:17:23.308Z,1000.16
2023-02-02T10:18:23.147Z,1000.15
2023-02-02T10:19:23.107Z,1000.19
2023-02-02T10:20:23.334Z,1000.27
2023-02-02T10:21:23.087Z,1000.34
2023-02-02T10:22:23.116Z,1000.31
2023-02-02T10:23:23.078Z,1000.24
2023-02-02T10:24:23.070Z,1000.35
2023-02-02T10:25:23.156Z,1000.28
2023-02-02T10:26:23.167Z,1000.27
2023-02-02T10:27:23.161Z,1000.28
2023-02-02T10:28:23.039Z,1000.31
2023-02-02T10:29:23.039Z,1000.25
2023-02-02T10:30:23.411Z,1000.25
2023-02-02T10:31:23.080Z,1000.35
2023-02-02T10:32:23.215Z,1000.34
2023-02-02T10:33:22.999Z,1000.29
2023-02-02T10:34:23.049Z,1000.25
2023-02-02T10:35:23.085Z,1000.30
2023-02-02T10:36:22.983Z,1000.35
2023-02-02T10:37:23.008Z,1000.28
2023-02-02T10:38:22.975Z,1000.31
2023-02-02T10:39:22.966Z,1000.32
2023-02-02T10:40:23.017Z,1000.33
2023-02-02T10:41:22.951Z,1000.34
2023-02-02T10:42:22.976Z,1000.33
2023-02-02T10:43:22.937Z,1000.38
2023-02-02T10:44:22.926Z,1000.26
2023-02-02T10:45:22.912Z,1000.32
2023-02-02T10:46:23.015Z,1000.33
2023-02-02T10:47:22.914Z,1000.32
2023-02-02T10:48:22.930Z,1000.38
2023-02-02T10:49:22.940Z,1000.34
2023-02-02T10:50:23.225Z,1000.35
2023-02-02T10:51:22.881Z,1000.37
2023-02-02T10:52:22.879Z,1000.32
2023-02-02T10:53:22.895Z,1000.38
2023-02-02T10:54:22.853Z,1000.33
2023-02-02T10:55:22.848Z,1000.39
2023-02-02T10:56:22.834Z,1000.41
2023-02-02T10:57:22.833Z,1000.36
2023-02-02T10:58:56.633Z,1000.41
2023-02-02T10:59:22.887Z,1000.42
2023-02-02T11:00:23.480Z,1000.37
2023-02-02T11:01:23.995Z,1000.43
2023-02-02T11:02:22.841Z,1000.42
2023-02-02T11:03:22.834Z,1000.41
2023-02-02T11:04:22.787Z,1000.43
2023-02-02T11:05:22.799Z,1000.46
2023-02-02T11:06:22.773Z,1000.44
2023-02-02T11:07:22.784Z,1000.48
2023-02-02T11:08:22.807Z,1000.48
2023-02-02T11:09:22.757Z,1000.44
2023-02-02T11:10:22.946Z,1000.45
2023-02-02T11:11:22.748Z,1000.47
2023-02-02T11:12:22.736Z,1000.45
2023-02-02T11:13:22.774Z,1000.43
2023-02-02T11:14:22.727Z,1000.55
2023-02-02T11:15:22.691Z,1000.56
2023-02-02T11:16:22.841Z,1000.53
2023-02-02T11:17:22.708Z,1000.56
2023-02-02T11:18:22.725Z,1000.46
2023-02-02T11:19:22.693Z,1000.52
2023-02-02T11:20:22.829Z,1000.49
2023-02-02T11:21:22.671Z,1000.41
2023-02-02T11:22:22.647Z,1000.43
2023-02-02T11:23:22.685Z,1000.39
2023-02-02T11:24:22.647Z,1000.43
2023-02-02T11:25:22.650Z,1000.43
2023-02-02T11:26:22.638Z,1000.55
2023-02-02T11:27:22.601Z,1000.57
2023-02-02T11:28:22.659Z,1000.55
2023-02-02T11:29:22.589Z,1000.53
2023-02-02T11:30:22.881Z,1000.51
2023-02-02T11:31:22.675Z,1000.54
2023-02-02T11:32:22.576Z,1000.56
2023-02-02T11:33:22.591Z,1000.61
2023-02-02T11:34:22.560Z,1000.54
2023-02-02T11:35:22.550Z,1000.60
2023-02-02T11:36:22.586Z,1000.57
2023-02-02T11:37:22.537Z,1000.53
2023-02-02T11:38:22.575Z,1000.51
2023-02-02T11:39:22.525Z,1000.54
2023-02-02T11:40:22.568Z,1000.50
2023-02-02T11:41:22.518Z,1000.43
2023-02-02T11:42:22.518Z,1000.43
2023-02-02T11:43:22.489Z,1000.46
2023-02-02T11:44:22.547Z,1000.45
2023-02-02T11:45:22.478Z,1000.43
2023-02-02T11:46:22.519Z,1000.49
2023-02-02T11:47:22.455Z,1000.48
2023-02-02T11:48:22.467Z,1000.50
2023-02-02T11:49:22.492Z,1000.53
2023-02-02T11:50:22.724Z,1000.62
2023-02-02T11:51:22.537Z,1000.68
2023-02-02T11:52:22.467Z,1000.59
2023-02-02T11:53:22.442Z,1000.65
2023-02-02T11:54:22.489Z,1000.56
2023-02-02T11:55:22.456Z,1000.62
2023-02-02T11:56:22.407Z,1000.52
2023-02-02T11:57:22.397Z,1000.57
2023-02-02T11:58:22.397Z,1000.59
2023-02-02T11:59:22.414Z,1000.61
2023-02-02T12:00:22.453Z,1000.62
2023-02-02T12:01:22.359Z,1000.67
2023-02-02T12:02:22.395Z,1000.67
2023-02-02T12:03:22.341Z,1000.71
2023-02-02T12:04:22.431Z,1000.71
2023-02-02T12:05:22.324Z,1000.66
2023-02-02T12:06:22.326Z,1000.64
2023-02-02T12:07:22.308Z,1000.67
2023-02-02T12:08:22.310Z,1000.63
2023-02-02T12:09:22.376Z,1000.75
2023-02-02T12:10:22.363Z,1000.66
2023-02-02T12:11:22.280Z,1000.66
2023-02-02T12:12:22.305Z,1000.65
2023-02-02T12:13:22.292Z,1000.65
2023-02-02T12:14:22.352Z,1000.68
2023-02-02T12:15:22.273Z,1000.67
2023-02-02T12:16:22.280Z,1000.60
2023-02-02T12:17:22.255Z,1000.69
2023-02-02T12:18:22.228Z,1000.70
2023-02-02T12:19:22.282Z,1000.74
2023-02-02T12:20:22.285Z,1000.66
2023-02-02T12:21:22.216Z,1000.80
2023-02-02T12:22:22.190Z,1000.84
2023-02-02T12:23:22.196Z,1000.77
2023-02-02T12:24:22.263Z,1000.81